Time;durP1;ratioP1;P1;durP2;ratioP2;P2;SDS_P1;SDS_P2;PMS_P1;PMS_P2;Temp;Humidity;BMP_temperature;BMP_pressure;BME280_temperature;BME280_humidity;BME280_pressure;Samples;Min_cycle;Max_cycle;Signal;HPM_P1;HPM_P2
2022/03/03 00:01:20;;;;;;;27.73;13.07;;;;;;;-1.63;72.08;99725.66;5034387;28;20041;-54
2022/03/03 00:03:45;;;;;;;24.85;13.32;;;;;;;-1.72;72.34;99737.09;5032174;28;20060;-54
2022/03/03 00:06:11;;;;;;;21.45;12.07;;;;;;;-1.73;73.56;99724.91;5035685;28;20076;-51
2022/03/03 00:08:36;;;;;;;25.92;11.05;;;;;;;-1.80;72.85;99724.72;5039675;28;20033;-52
2022/03/03 00:11:01;;;;;;;33.08;15.90;;;;;;;-1.84;72.64;99719.91;5034012;28;20068;-51
2022/03/03 00:13:27;;;;;;;28.08;14.38;;;;;;;-1.86;72.58;99720.06;5039971;28;20052;-54
2022/03/03 00:15:52;;;;;;;30.35;13.05;;;;;;;-1.83;73.27;99719.75;5029920;28;20088;-51
2022/03/03 00:18:18;;;;;;;30.08;12.48;;;;;;;-1.99;72.83;99717.78;5032708;28;20460;-53
2022/03/03 00:20:43;;;;;;;24.27;13.05;;;;;;;-1.88;74.54;99727.25;5035667;28;20137;-53
2022/03/03 00:23:09;;;;;;;28.88;12.00;;;;;;;-1.89;73.50;99728.25;5042145;28;20029;-54
2022/03/03 00:25:34;;;;;;;26.55;14.80;;;;;;;-1.77;74.40;99728.84;5035704;28;20041;-52
2022/03/03 00:28:03;;;;;;;31.60;14.02;;;;;;;-1.54;76.64;99726.56;5030147;28;20034;-52
2022/03/03 00:30:28;;;;;;;30.45;13.10;;;;;;;-1.60;73.60;99733.28;5029671;28;20045;-54
2022/03/03 00:32:54;;;;;;;25.20;13.40;;;;;;;-1.65;74.68;99727.63;5035543;28;20025;-52
2022/03/03 00:35:19;;;;;;;24.90;12.95;;;;;;;-1.87;74.33;99723.66;5029518;28;20140;-54
2022/03/03 00:37:45;;;;;;;26.50;12.70;;;;;;;-1.69;73.19;99726.28;5048805;28;20479;-55
2022/03/03 00:40:10;;;;;;;23.55;12.40;;;;;;;-2.02;74.30;99730.38;5029536;28;20079;-54
2022/03/03 00:42:36;;;;;;;21.02;11.60;;;;;;;-2.13;74.20;99720.13;5032997;28;20014;-53
2022/03/03 00:45:01;;;;;;;23.38;11.98;;;;;;;-2.21;74.55;99723.47;5033822;28;20048;-52
2022/03/03 00:47:27;;;;;;;24.30;11.65;;;;;;;-2.17;77.50;99724.84;5035493;28;20021;-53
2022/03/03 00:49:52;;;;;;;21.25;12.05;;;;;;;-2.24;75.32;99716.72;5029827;28;20116;-53
2022/03/03 00:52:17;;;;;;;25.58;12.73;;;;;;;-2.26;74.90;99720.47;5029648;28;20095;-54
2022/03/03 00:54:43;;;;;;;25.50;12.38;;;;;;;-2.24;75.18;99716.72;5035580;28;20471;-54
2022/03/03 00:57:08;;;;;;;34.33;12.38;;;;;;;-2.20;76.78;99706.75;5038683;28;20048;-54
2022/03/03 00:59:34;;;;;;;26.30;12.88;;;;;;;-2.27;76.12;99726.69;5031454;28;20029;-54
2022/03/03 01:01:59;;;;;;;26.58;13.25;;;;;;;-2.33;76.39;99711.53;5028617;28;20139;-52
2022/03/03 01:04:24;;;;;;;26.08;13.38;;;;;;;-2.22;83.07;99706.91;5036211;28;20049;-53
2022/03/03 01:06:50;;;;;;;24.70;12.45;;;;;;;-2.41;77.25;99705.22;5033446;28;20037;-54
2022/03/03 01:09:15;;;;;;;27.55;12.43;;;;;;;-2.52;76.68;99702.81;5033244;28;20179;-53
2022/03/03 01:11:41;;;;;;;21.55;11.75;;;;;;;-2.28;80.86;99706.66;5015980;28;20737;-51
2022/03/03 01:14:06;;;;;;;23.27;11.52;;;;;;;-2.44;77.06;99704.69;5035646;28;20203;-54
2022/03/03 01:16:32;;;;;;;27.92;13.68;;;;;;;-2.47;77.49;99705.81;5028406;28;20041;-53
2022/03/03 01:18:57;;;;;;;29.85;12.27;;;;;;;-2.52;77.48;99708.06;5038856;28;20029;-51
2022/03/03 01:21:23;;;;;;;24.75;12.93;;;;;;;-2.58;77.26;99705.19;5030866;28;20045;-51
2022/03/03 01:23:48;;;;;;;22.67;12.30;;;;;;;-2.56;79.00;99696.19;5041854;28;20441;-54
2022/03/03 01:26:13;;;;;;;22.80;11.52;;;;;;;-2.50;79.28;99690.34;5036507;28;20048;-52
2022/03/03 01:28:39;;;;;;;24.02;12.18;;;;;;;-2.43;82.78;99701.91;5032547;28;20032;-52
2022/03/03 01:31:04;;;;;;;24.23;12.20;;;;;;;-2.58;78.68;99697.31;5033887;28;20075;-53
2022/03/03 01:33:30;;;;;;;26.33;12.57;;;;;;;-2.45;81.27;99690.72;5031528;28;20136;-55
2022/03/03 01:35:55;;;;;;;25.88;13.55;;;;;;;-2.18;79.87;99691.66;5029878;28;20052;-54
2022/03/03 01:38:21;;;;;;;23.15;13.40;;;;;;;-2.34;78.89;99683.63;5035805;28;20044;-51
2022/03/03 01:40:46;;;;;;;25.25;13.18;;;;;;;-2.45;79.80;99682.03;5032147;28;20045;-54
2022/03/03 01:43:11;;;;;;;31.08;13.90;;;;;;;-2.49;79.59;99678.88;5035339;28;20075;-54
2022/03/03 01:45:37;;;;;;;22.30;13.30;;;;;;;-2.66;78.08;99679.66;5026878;28;20460;-51
2022/03/03 01:48:02;;;;;;;26.45;14.10;;;;;;;-2.72;78.28;99672.38;5032948;28;20041;-52
2022/03/03 01:50:28;;;;;;;30.95;13.88;;;;;;;-2.79;79.58;99673.94;5028621;28;20046;-51
2022/03/03 01:52:53;;;;;;;22.08;13.18;;;;;;;-2.99;79.47;99676.66;5032251;28;20092;-53
2022/03/03 01:55:19;;;;;;;22.02;11.73;;;;;;;-2.97;79.31;99669.47;5028814;28;20108;-53
2022/03/03 01:57:49;;;;;;;21.25;13.23;;;;;;;-2.65;78.21;99661.13;5034661;28;20499;-52
2022/03/03 02:00:15;;;;;;;23.30;11.88;;;;;;;-2.60;79.07;99665.94;5034589;28;20043;-53
2022/03/03 02:02:40;;;;;;;22.88;12.55;;;;;;;-2.70;78.46;99662.56;5029683;28;20479;-52
2022/03/03 02:05:07;;;;;;;21.45;11.88;;;;;;;-2.61;79.48;99661.69;5034779;28;20068;-54
2022/03/03 02:07:33;;;;;;;23.63;13.00;;;;;;;-2.67;78.99;99670.13;5031334;28;20059;-54
2022/03/03 02:09:59;;;;;;;21.85;12.18;;;;;;;-2.67;80.91;99657.00;5034992;28;20071;-54
2022/03/03 02:12:24;;;;;;;26.17;12.75;;;;;;;-2.80;79.56;99664.41;5022420;28;20036;-54
2022/03/03 02:14:50;;;;;;;22.58;12.98;;;;;;;-2.44;82.03;99658.25;5036313;28;20033;-52
2022/03/03 02:17:16;;;;;;;27.27;12.70;;;;;;;-2.49;80.77;99655.25;5032393;28;20163;-53
2022/03/03 02:19:41;;;;;;;20.38;11.82;;;;;;;-2.69;79.76;99654.53;5031265;28;20562;-51
2022/03/03 02:22:07;;;;;;;25.63;13.43;;;;;;;-2.90;80.08;99649.53;5029641;28;20041;-53
2022/03/03 02:24:34;;;;;;;24.55;12.32;;;;;;;-3.07;80.91;99660.78;5035749;28;20036;-52
2022/03/03 02:26:59;;;;;;;25.58;13.48;;;;;;;-3.22;82.06;99657.84;5036871;28;20041;-52
2022/03/03 02:29:25;;;;;;;25.33;13.27;;;;;;;-3.49;82.99;99659.41;5043453;28;20025;-53
2022/03/03 02:31:50;;;;;;;22.35;13.60;;;;;;;-2.91;88.60;99650.50;5035078;28;20068;-52
2022/03/03 02:34:17;;;;;;;22.92;13.48;;;;;;;-2.67;82.87;99646.50;5037743;28;20470;-53
2022/03/03 02:36:42;;;;;;;26.02;13.18;;;;;;;-2.85;81.21;99638.59;5031605;28;20041;-54
2022/03/03 02:39:07;;;;;;;24.77;13.02;;;;;;;-2.95;81.13;99636.03;5037955;28;20041;-52
2022/03/03 02:41:33;;;;;;;22.67;13.32;;;;;;;-2.61;85.11;99638.06;5031584;28;20534;-54
2022/03/03 02:43:59;;;;;;;31.92;13.85;;;;;;;-2.86;82.08;99637.78;5036361;28;20038;-53
2022/03/03 02:46:25;;;;;;;26.05;13.48;;;;;;;-3.22;82.04;99636.00;5036182;28;20144;-51
2022/03/03 02:48:50;;;;;;;28.08;12.48;;;;;;;-3.58;82.69;99630.59;5038986;28;20041;-52
2022/03/03 02:51:16;;;;;;;28.88;13.77;;;;;;;-3.54;83.23;99629.38;5036150;28;20075;-53
2022/03/03 02:53:42;;;;;;;26.55;14.10;;;;;;;-3.50;83.37;99628.09;5031916;28;20045;-51
2022/03/03 02:56:08;;;;;;;23.45;13.75;;;;;;;-3.26;86.00;99630.25;5033541;28;20069;-53
2022/03/03 02:58:33;;;;;;;24.20;12.95;;;;;;;-3.39;84.91;99620.06;5034657;28;20029;-54
2022/03/03 03:00:59;;;;;;;29.02;12.93;;;;;;;-3.47;85.06;99618.19;5031323;28;20064;-52
2022/03/03 03:03:24;;;;;;;24.00;13.48;;;;;;;-3.29;85.97;99615.63;5037165;28;20034;-51
2022/03/03 03:05:50;;;;;;;25.50;13.90;;;;;;;-3.29;83.00;99610.38;5037166;28;20044;-54
2022/03/03 03:08:15;;;;;;;28.40;14.60;;;;;;;-3.35;83.28;99613.56;5040733;28;20040;-52
2022/03/03 03:10:41;;;;;;;25.02;13.90;;;;;;;-3.35;84.68;99613.56;5034365;28;20049;-52
2022/03/03 03:13:07;;;;;;;30.00;15.23;;;;;;;-3.36;84.82;99603.25;5038757;28;20068;-53
2022/03/03 03:15:34;;;;;;;37.40;14.40;;;;;;;-3.45;83.83;99612.78;5024383;28;20037;-53
2022/03/03 03:18:09;;;;;;;27.98;13.77;;;;;;;-3.48;84.36;99615.69;5041332;28;20036;-53
2022/03/03 03:20:36;;;;;;;30.25;14.63;;;;;;;-3.58;84.19;99614.88;5046635;28;20527;-53
2022/03/03 03:23:01;;;;;;;32.22;15.90;;;;;;;-3.15;88.16;99610.88;5016199;28;20052;-53
2022/03/03 03:25:27;;;;;;;34.53;15.80;;;;;;;-3.36;87.24;99608.47;5030651;28;20132;-53
2022/03/03 03:27:52;;;;;;;40.08;19.40;;;;;;;-3.35;87.03;99610.94;5031085;28;20044;-51
2022/03/03 03:30:18;;;;;;;38.28;17.38;;;;;;;-3.42;86.21;99612.50;5030831;28;20051;-52
2022/03/03 03:32:43;;;;;;;33.17;15.52;;;;;;;-2.99;93.16;99605.84;5047591;28;20467;-53
2022/03/03 03:35:08;;;;;;;36.15;15.50;;;;;;;-3.03;90.00;99605.28;5030616;28;20088;-50
2022/03/03 03:37:36;;;;;;;25.17;13.85;;;;;;;-3.11;88.18;99597.31;5030039;28;20038;-53
2022/03/03 03:40:02;;;;;;;33.22;15.75;;;;;;;-3.28;85.67;99596.28;5030632;28;20037;-54
2022/03/03 03:42:27;;;;;;;26.10;13.55;;;;;;;-2.97;91.27;99596.03;5038111;28;20030;-54
2022/03/03 03:44:52;;;;;;;26.10;13.80;;;;;;;-3.18;87.38;99595.44;5031070;28;20068;-53
2022/03/03 03:47:18;;;;;;;24.25;14.75;;;;;;;-3.33;86.41;99593.28;5033243;28;20510;-54
2022/03/03 03:49:43;;;;;;;33.78;13.77;;;;;;;-3.42;86.05;99593.31;5035015;28;20045;-53
2022/03/03 03:52:09;;;;;;;27.45;13.30;;;;;;;-3.56;84.85;99603.28;5030938;28;20083;-54
2022/03/03 03:54:34;;;;;;;24.08;12.90;;;;;;;-3.83;85.37;99608.47;5032686;28;20033;-53
2022/03/03 03:56:59;;;;;;;28.05;14.30;;;;;;;-3.99;85.22;99606.44;5034687;28;20041;-52
2022/03/03 03:59:25;;;;;;;26.55;14.27;;;;;;;-3.75;89.30;99611.19;5033545;28;20038;-53
2022/03/03 04:01:50;;;;;;;21.85;13.27;;;;;;;-3.44;90.18;99611.81;5034828;28;20042;-51
2022/03/03 04:04:16;;;;;;;26.13;13.43;;;;;;;-3.34;87.95;99611.78;5038945;28;20087;-51
2022/03/03 04:06:41;;;;;;;31.25;13.35;;;;;;;-3.38;84.42;99608.63;5033852;28;20181;-53
2022/03/03 04:09:07;;;;;;;23.73;12.00;;;;;;;-3.03;89.57;99614.94;5034286;28;20489;-53
2022/03/03 04:11:32;;;;;;;23.88;13.52;;;;;;;-3.14;86.49;99602.03;5017742;28;20037;-54
2022/03/03 04:13:58;;;;;;;26.40;13.18;;;;;;;-3.53;84.07;99603.00;5035422;28;20041;-53
2022/03/03 04:16:24;;;;;;;24.20;12.77;;;;;;;-3.81;84.50;99594.25;5038808;28;20118;-51
2022/03/03 04:18:49;;;;;;;28.70;12.82;;;;;;;-3.62;88.00;99603.03;5032751;28;20452;-51
2022/03/03 04:21:15;;;;;;;30.60;13.80;;;;;;;-3.84;84.68;99594.56;5031485;28;20059;-52
2022/03/03 04:23:40;;;;;;;25.00;14.30;;;;;;;-3.92;85.83;99599.63;5034864;28;20041;-53
2022/03/03 04:26:05;;;;;;;26.83;13.73;;;;;;;-3.86;86.21;99601.72;5031858;28;20052;-53
2022/03/03 04:28:31;;;;;;;27.30;13.13;;;;;;;-3.85;86.72;99598.13;5030367;28;20042;-50
2022/03/03 04:30:56;;;;;;;23.08;12.48;;;;;;;-3.66;87.10;99601.69;5029959;28;20038;-51
2022/03/03 04:33:22;;;;;;;28.23;13.93;;;;;;;-3.81;86.26;99602.13;5027878;28;20029;-53
2022/03/03 04:35:47;;;;;;;24.67;13.55;;;;;;;-4.07;85.03;99593.19;5029758;28;20052;-53
2022/03/03 04:38:12;;;;;;;24.65;14.02;;;;;;;-4.20;86.59;99598.72;5029841;28;20041;-51
2022/03/03 04:40:38;;;;;;;29.02;15.05;;;;;;;-3.89;90.23;99596.75;5036506;28;20403;-51
2022/03/03 04:43:03;;;;;;;24.90;13.20;;;;;;;-3.22;95.50;99594.06;5036436;28;20029;-52
2022/03/03 04:45:29;;;;;;;29.05;14.43;;;;;;;-3.28;91.87;99592.84;5033311;28;20403;-52
2022/03/03 04:47:54;;;;;;;34.47;15.93;;;;;;;-3.60;90.43;99596.69;5034864;28;20168;-54
2022/03/03 04:50:20;;;;;;;31.38;14.55;;;;;;;-4.05;86.68;99588.66;5038657;28;20336;-54
2022/03/03 04:52:45;;;;;;;24.20;13.90;;;;;;;-4.06;88.51;99592.25;5035330;28;20364;-51
2022/03/03 04:55:11;;;;;;;30.00;15.63;;;;;;;-3.99;89.96;99598.56;5036685;28;20026;-53
2022/03/03 04:57:36;;;;;;;25.42;13.52;;;;;;;-4.10;87.86;99601.31;5039801;28;20443;-52
2022/03/03 05:00:03;;;;;;;24.38;13.05;;;;;;;-4.25;87.51;99599.13;5036081;28;20029;-56
2022/03/03 05:02:29;;;;;;;27.80;13.95;;;;;;;-4.29;87.70;99589.91;5035909;28;20044;-53
2022/03/03 05:04:54;;;;;;;20.52;12.85;;;;;;;-4.36;87.71;99600.09;5034019;28;20463;-52
2022/03/03 05:07:19;;;;;;;25.88;14.43;;;;;;;-4.23;88.00;99591.16;5029624;28;20060;-54
2022/03/03 05:09:45;;;;;;;31.40;14.77;;;;;;;-4.25;88.04;99591.28;5039251;28;20025;-54
2022/03/03 05:12:10;;;;;;;23.42;12.88;;;;;;;-4.27;87.78;99587.97;5034768;28;20040;-52
2022/03/03 05:14:36;;;;;;;24.30;13.48;;;;;;;-4.27;88.34;99587.97;5033781;28;20030;-54
2022/03/03 05:17:01;;;;;;;21.83;12.45;;;;;;;-4.18;87.55;99574.06;5029610;28;20037;-52
2022/03/03 05:19:27;;;;;;;28.00;14.48;;;;;;;-4.13;88.15;99569.22;5031137;28;20120;-53
2022/03/03 05:21:52;;;;;;;33.47;16.33;;;;;;;-4.00;88.75;99563.69;5028714;28;20046;-53
2022/03/03 05:24:18;;;;;;;29.77;15.45;;;;;;;-4.03;87.61;99563.16;5042352;28;20039;-53
2022/03/03 05:26:43;;;;;;;25.00;13.07;;;;;;;-4.12;88.30;99565.66;5032598;28;20045;-54
2022/03/03 05:29:09;;;;;;;32.88;14.57;;;;;;;-3.81;92.86;99562.81;5041874;28;20068;-50
2022/03/03 05:31:34;;;;;;;30.13;15.75;;;;;;;-3.64;93.39;99557.78;5033790;28;20041;-53
2022/03/03 05:33:59;;;;;;;38.10;15.13;;;;;;;-3.95;89.63;99550.19;5034478;28;20035;-53
2022/03/03 05:36:25;;;;;;;24.60;13.90;;;;;;;-4.10;89.35;99544.56;5034701;28;20514;-50
2022/03/03 05:38:51;;;;;;;30.83;14.75;;;;;;;-4.10;90.60;99554.22;5029885;28;20033;-50
2022/03/03 05:41:16;;;;;;;29.15;14.30;;;;;;;-4.16;89.64;99551.19;5029465;28;20037;-52
2022/03/03 05:43:41;;;;;;;24.80;12.80;;;;;;;-4.35;89.01;99543.34;5035005;28;20038;-53
2022/03/03 05:46:08;;;;;;;27.23;12.70;;;;;;;-4.15;92.44;99552.00;5010275;28;20582;-51
2022/03/03 05:48:33;;;;;;;29.10;13.43;;;;;;;-3.51;97.28;99555.69;5038728;28;20017;-53
2022/03/03 05:50:59;;;;;;;26.77;13.40;;;;;;;-4.07;92.09;99553.91;5033038;28;20053;-51
2022/03/03 05:53:24;;;;;;;28.15;14.32;;;;;;;-4.30;90.69;99551.59;5031661;28;20034;-51
2022/03/03 05:55:52;;;;;;;31.80;15.02;;;;;;;-4.32;90.84;99558.75;5028305;28;20054;-56
2022/03/03 05:58:21;;;;;;;28.95;14.52;;;;;;;-4.28;92.07;99554.91;5030552;28;20033;-51
2022/03/03 06:00:48;;;;;;;23.42;13.20;;;;;;;-3.98;94.82;99551.28;5032291;28;20056;-53
2022/03/03 06:03:17;;;;;;;31.27;14.55;;;;;;;-4.24;91.99;99556.28;5036949;28;20410;-50
2022/03/03 06:05:48;;;;;;;25.70;13.25;;;;;;;-4.29;92.46;99561.13;5052202;28;20468;-52
2022/03/03 06:08:20;;;;;;;25.60;13.48;;;;;;;-3.99;96.04;99543.59;5036732;28;20056;-51
2022/03/03 06:10:52;;;;;;;33.50;15.18;;;;;;;-3.61;97.68;99557.53;5041144;28;20060;-52
2022/03/03 06:13:20;;;;;;;30.67;16.75;;;;;;;-3.91;93.90;99555.00;5031816;28;20048;-54
2022/03/03 06:15:46;;;;;;;29.17;15.32;;;;;;;-3.59;95.34;99564.28;5032454;28;20060;-53
2022/03/03 06:18:12;;;;;;;35.00;17.83;;;;;;;-3.65;94.22;99561.41;5038829;28;20483;-51
2022/03/03 06:20:37;;;;;;;31.00;15.30;;;;;;;-3.40;96.31;99559.94;5029799;28;20080;-50
2022/03/03 06:23:03;;;;;;;29.90;16.60;;;;;;;-3.57;91.82;99567.59;5020538;28;20029;-54
2022/03/03 06:25:28;;;;;;;30.40;16.17;;;;;;;-3.76;89.34;99565.84;5037342;28;20046;-52
2022/03/03 06:27:54;;;;;;;28.00;14.05;;;;;;;-3.69;91.41;99566.13;5040482;28;20036;-53
2022/03/03 06:30:19;;;;;;;25.35;15.00;;;;;;;-3.16;91.60;99569.91;5034284;28;20328;-54
2022/03/03 06:32:44;;;;;;;29.85;15.18;;;;;;;-3.16;88.67;99572.53;5031799;28;20510;-54
2022/03/03 06:35:10;;;;;;;27.50;15.13;;;;;;;-3.43;86.19;99574.16;5035425;28;20510;-53
2022/03/03 06:37:35;;;;;;;27.02;14.95;;;;;;;-3.44;87.10;99574.28;5032133;28;20029;-52
2022/03/03 06:40:01;;;;;;;28.30;15.50;;;;;;;-3.76;86.98;99568.47;5041934;28;20041;-53
2022/03/03 06:42:26;;;;;;;25.52;14.25;;;;;;;-3.41;89.03;99579.25;5041969;28;20021;-54
2022/03/03 06:44:54;;;;;;;28.15;14.35;;;;;;;-3.31;85.04;99575.63;5029647;28;20056;-52
2022/03/03 06:47:20;;;;;;;29.55;14.63;;;;;;;-2.65;81.68;99576.34;5018426;28;20070;-54
2022/03/03 06:49:47;;;;;;;25.00;13.50;;;;;;;-0.93;83.22;99590.63;5038259;28;20037;-54
2022/03/03 06:52:14;;;;;;;27.25;14.32;;;;;;;-1.69;76.59;99584.34;5027849;28;20041;-54
2022/03/03 06:54:39;;;;;;;24.17;13.18;;;;;;;-2.13;77.07;99573.84;5032013;28;20021;-53
2022/03/03 06:57:05;;;;;;;24.45;13.32;;;;;;;-1.91;76.91;99566.47;5014540;28;20042;-52
2022/03/03 06:59:34;;;;;;;32.70;15.60;;;;;;;-1.64;75.20;99563.69;5022959;28;20033;-54
2022/03/03 07:02:00;;;;;;;28.60;15.07;;;;;;;-0.30;76.61;99574.31;5030710;28;20068;-52
2022/03/03 07:04:28;;;;;;;26.95;14.68;;;;;;;1.32;68.76;99575.84;5035255;28;20033;-53
2022/03/03 07:06:54;;;;;;;30.33;14.98;;;;;;;2.22;60.53;99579.66;5043981;28;20048;-54
2022/03/03 07:09:19;;;;;;;37.28;15.95;;;;;;;1.78;60.86;99577.72;5033819;28;20506;-54
2022/03/03 07:11:45;;;;;;;38.15;15.32;;;;;;;1.29;62.23;99584.94;5038232;28;20029;-53
2022/03/03 07:14:11;;;;;;;27.33;15.05;;;;;;;0.49;63.74;99585.09;5037588;28;20033;-51
2022/03/03 07:16:46;;;;;;;36.05;16.30;;;;;;;-0.37;68.25;99589.13;5029043;28;20510;-54
2022/03/03 07:19:14;;;;;;;34.47;14.50;;;;;;;0.78;67.72;99586.34;5035523;28;20055;-54
2022/03/03 07:21:58;;;;;;;45.58;17.70;;;;;;;1.63;62.78;99586.41;5031546;28;20041;-53
2022/03/03 07:24:28;;;;;;;29.17;17.02;;;;;;;0.85;63.43;99587.31;5031546;28;20040;-51
2022/03/03 07:26:55;;;;;;;30.27;17.08;;;;;;;1.19;62.54;99588.81;5034882;28;20052;-53
2022/03/03 07:29:20;;;;;;;33.85;18.15;;;;;;;1.81;60.68;99591.41;5024352;28;20017;-53
2022/03/03 07:31:50;;;;;;;37.60;21.17;;;;;;;1.65;62.47;99594.16;5024735;28;20103;-55
2022/03/03 07:34:16;;;;;;;40.80;20.25;;;;;;;1.92;60.52;99598.06;5040576;28;20053;-52
2022/03/03 07:36:42;;;;;;;44.58;22.77;;;;;;;1.83;62.53;99589.41;5034311;28;20420;-52
2022/03/03 07:39:10;;;;;;;44.70;21.98;;;;;;;2.45;60.81;99582.25;5018539;28;20031;-55
2022/03/03 07:41:35;;;;;;;43.65;19.65;;;;;;;2.77;59.61;99589.00;5028430;28;20049;-53
2022/03/03 07:44:01;;;;;;;43.55;20.42;;;;;;;2.68;59.53;99583.00;5032426;28;20029;-51
2022/03/03 07:46:26;;;;;;;39.83;20.55;;;;;;;2.76;59.53;99587.38;5038438;28;20029;-53
2022/03/03 07:48:53;;;;;;;44.08;20.45;;;;;;;3.07;58.08;99568.63;5036477;28;20425;-54
2022/03/03 07:51:19;;;;;;;48.60;19.73;;;;;;;3.01;58.78;99577.31;5037387;28;20033;-54
2022/03/03 07:53:44;;;;;;;45.35;19.15;;;;;;;3.24;58.40;99571.88;5031748;28;20484;-55
2022/03/03 07:56:10;;;;;;;40.25;17.67;;;;;;;3.53;58.17;99565.66;5032977;28;20056;-55
2022/03/03 07:58:44;;;;;;;35.97;17.45;;;;;;;3.48;58.32;99565.41;5026165;28;20040;-55
2022/03/03 08:01:10;;;;;;;33.17;17.55;;;;;;;3.32;57.52;99568.28;5038294;28;20041;-53
2022/03/03 08:03:35;;;;;;;36.42;18.42;;;;;;;3.40;58.76;99568.19;5024201;28;20438;-55
2022/03/03 08:06:01;;;;;;;30.38;17.38;;;;;;;3.59;57.73;99564.91;5036120;28;20041;-58
2022/03/03 08:08:29;;;;;;;31.88;17.60;;;;;;;3.54;59.13;99575.25;5030681;28;20514;-55
2022/03/03 08:11:01;;;;;;;40.65;18.23;;;;;;;3.56;58.00;99569.78;5035542;28;20065;-53
2022/03/03 08:13:27;;;;;;;34.58;19.17;;;;;;;3.26;59.00;99582.28;5030589;28;20072;-55
2022/03/03 08:15:53;;;;;;;42.55;19.20;;;;;;;2.69;61.01;99581.16;5036101;28;20472;-55
2022/03/03 08:18:18;;;;;;;36.13;20.75;;;;;;;3.01;60.02;99586.06;5034228;28;20029;-54
2022/03/03 08:20:43;;;;;;;45.67;20.15;;;;;;;3.56;58.06;99583.84;5014525;28;20049;-53
2022/03/03 08:23:09;;;;;;;39.85;20.92;;;;;;;3.35;59.78;99586.47;5029946;28;20510;-55
2022/03/03 08:25:35;;;;;;;39.30;18.92;;;;;;;4.34;56.81;99591.84;5033859;28;20048;-54
2022/03/03 08:28:02;;;;;;;38.08;18.45;;;;;;;4.80;55.92;99580.75;5030068;28;20057;-55
2022/03/03 08:30:28;;;;;;;36.03;17.92;;;;;;;4.80;55.74;99583.38;5029930;28;20033;-55
2022/03/03 08:32:59;;;;;;;34.70;18.33;;;;;;;5.15;53.99;99589.47;5031099;28;20456;-54
2022/03/03 08:35:26;;;;;;;34.30;19.00;;;;;;;5.41;54.23;99588.75;5030816;28;20043;-56
2022/03/03 08:38:00;;;;;;;31.80;17.95;;;;;;;6.14;52.13;99584.59;5029857;28;20017;-55
2022/03/03 08:40:25;;;;;;;33.55;18.45;;;;;;;5.61;52.21;99587.97;5015341;28;20042;-56
2022/03/03 08:42:56;;;;;;;30.80;18.38;;;;;;;6.15;51.75;99578.25;5006005;28;20024;-54
2022/03/03 08:45:23;;;;;;;30.63;18.80;;;;;;;5.96;52.34;99578.03;5036465;28;20041;-55
2022/03/03 08:47:57;;;;;;;39.40;19.83;;;;;;;6.30;52.09;99578.06;5029948;28;20089;-54
2022/03/03 08:50:22;;;;;;;35.08;18.30;;;;;;;6.45;50.05;99584.78;5038035;28;20544;-52
2022/03/03 08:52:48;;;;;;;33.42;18.75;;;;;;;5.99;51.93;99584.78;5020188;28;20033;-55
2022/03/03 08:55:14;;;;;;;36.17;19.23;;;;;;;6.14;50.83;99588.09;5033825;28;20025;-54
2022/03/03 08:57:39;;;;;;;34.55;19.50;;;;;;;5.57;52.17;99589.41;5035999;28;20029;-53
2022/03/03 09:00:06;;;;;;;35.65;19.85;;;;;;;4.64;54.13;99586.34;5037409;28;20047;-55
2022/03/03 09:02:31;;;;;;;37.47;19.30;;;;;;;3.87;56.76;99595.97;5037708;28;20025;-55
2022/03/03 09:04:57;;;;;;;38.33;20.35;;;;;;;4.83;55.10;99590.97;5035757;28;20361;-55
2022/03/03 09:07:22;;;;;;;35.95;20.67;;;;;;;5.66;54.81;99593.50;5025101;28;20076;-54
2022/03/03 09:09:48;;;;;;;36.08;21.73;;;;;;;6.44;50.85;99593.81;5042847;28;20472;-54
2022/03/03 09:12:14;;;;;;;42.30;20.05;;;;;;;5.78;52.65;99594.56;5027980;28;20064;-54
2022/03/03 09:14:40;;;;;;;34.25;20.48;;;;;;;6.17;50.50;99581.53;5031918;28;20033;-54
2022/03/03 09:17:05;;;;;;;39.72;21.05;;;;;;;5.72;51.54;99592.72;5029367;28;20090;-53
2022/03/03 09:19:30;;;;;;;44.42;21.70;;;;;;;6.07;50.64;99594.44;5032434;28;20033;-53
2022/03/03 09:21:56;;;;;;;54.08;23.45;;;;;;;6.53;49.12;99594.41;5031268;28;20045;-54
2022/03/03 09:24:23;;;;;;;40.13;19.98;;;;;;;6.32;50.47;99589.31;5034889;28;20491;-52
2022/03/03 09:26:50;;;;;;;45.20;21.67;;;;;;;6.37;51.18;99597.50;5032386;28;20049;-53
2022/03/03 09:29:17;;;;;;;48.85;22.15;;;;;;;6.78;50.89;99596.41;5035949;28;20041;-54
2022/03/03 09:31:43;;;;;;;49.53;20.98;;;;;;;6.84;50.77;99592.91;5039026;28;20177;-52
2022/03/03 09:34:08;;;;;;;54.10;28.23;;;;;;;6.76;50.97;99596.59;5038848;28;20403;-53
2022/03/03 09:36:34;;;;;;;58.28;31.98;;;;;;;6.89;50.63;99587.78;5036035;28;20049;-52
2022/03/03 09:38:59;;;;;;;45.90;23.67;;;;;;;6.66;50.63;99590.91;5036632;28;20025;-54
2022/03/03 09:41:24;;;;;;;46.80;20.73;;;;;;;7.20;49.43;99597.72;5029464;28;20041;-52
2022/03/03 09:43:50;;;;;;;66.15;25.38;;;;;;;7.39;48.87;99596.00;5032961;28;20044;-54
2022/03/03 09:46:15;;;;;;;51.00;21.38;;;;;;;7.46;49.35;99586.13;5032039;28;20052;-54
2022/03/03 09:48:41;;;;;;;56.13;19.85;;;;;;;8.37;47.02;99584.84;5037701;28;20486;-53
2022/03/03 09:51:06;;;;;;;44.85;21.67;;;;;;;8.11;46.27;99595.75;5032636;28;20053;-52
2022/03/03 09:53:33;;;;;;;41.97;20.52;;;;;;;6.44;50.35;99577.84;5036082;28;20041;-51
2022/03/03 09:55:58;;;;;;;47.15;20.90;;;;;;;6.55;51.54;99568.38;5028966;28;20107;-54
2022/03/03 09:58:23;;;;;;;46.17;21.05;;;;;;;7.98;47.98;99581.47;5029082;28;20464;-54
2022/03/03 10:00:49;;;;;;;45.00;21.13;;;;;;;8.53;46.35;99577.34;5029462;28;20123;-53
2022/03/03 10:03:16;;;;;;;52.13;21.30;;;;;;;8.15;46.39;99579.06;5032167;28;20033;-54
2022/03/03 10:05:48;;;;;;;48.03;21.27;;;;;;;8.81;46.59;99577.69;5028586;28;20530;-54
2022/03/03 10:08:16;;;;;;;38.70;20.98;;;;;;;8.37;46.36;99574.16;5035390;28;20033;-55
2022/03/03 10:10:53;;;;;;;49.25;22.70;;;;;;;9.33;44.67;99571.91;5036777;28;20045;-54
2022/03/03 10:13:18;;;;;;;58.47;21.17;;;;;;;8.89;44.35;99578.44;5014686;28;20026;-54
2022/03/03 10:15:45;;;;;;;48.28;21.63;;;;;;;8.56;45.64;99571.53;5032462;28;20491;-55
2022/03/03 10:18:12;;;;;;;53.65;25.20;;;;;;;8.30;45.80;99568.06;5034489;28;20087;-54
2022/03/03 10:20:54;;;;;;;43.10;21.42;;;;;;;9.14;45.05;99575.66;5028602;28;20057;-53
2022/03/03 10:23:30;;;;;;;61.33;23.50;;;;;;;8.84;44.34;99561.19;5037692;28;20040;-54
2022/03/03 10:25:57;;;;;;;50.15;22.70;;;;;;;9.24;44.36;99560.72;5032125;28;20874;-54
2022/03/03 10:28:28;;;;;;;52.58;23.13;;;;;;;9.37;43.50;99558.91;5037388;28;20269;-54
2022/03/03 10:30:53;;;;;;;44.95;22.95;;;;;;;9.53;43.54;99560.94;5034981;28;20140;-53
2022/03/03 10:33:20;;;;;;;45.38;21.35;;;;;;;10.06;41.63;99552.13;5032780;28;20120;-54
2022/03/03 10:36:02;;;;;;;43.38;21.00;;;;;;;9.47;43.99;99557.31;5031858;28;20072;-55
2022/03/03 10:38:27;;;;;;;45.72;21.40;;;;;;;9.90;42.68;99548.22;5033553;28;20021;-54
2022/03/03 10:40:53;;;;;;;48.20;21.95;;;;;;;9.68;42.74;99537.28;5033308;28;20128;-54
2022/03/03 10:43:18;;;;;;;46.83;22.38;;;;;;;9.69;42.32;99541.56;5035470;28;20036;-54
2022/03/03 10:46:00;;;;;;;47.45;20.38;;;;;;;10.01;42.48;99537.78;5030240;28;20041;-52
2022/03/03 10:48:26;;;;;;;42.78;21.55;;;;;;;10.29;40.45;99535.28;5033693;28;20025;-55
2022/03/03 10:50:52;;;;;;;36.90;20.50;;;;;;;10.29;41.09;99539.81;5034488;28;20144;-53
2022/03/03 10:53:21;;;;;;;41.97;21.48;;;;;;;10.75;40.81;99538.94;5041472;28;20056;-55
2022/03/03 10:56:06;;;;;;;41.65;19.70;;;;;;;11.27;39.41;99534.63;5042064;28;20068;-54
2022/03/03 10:58:52;;;;;;;40.50;22.15;;;;;;;11.19;40.07;99527.78;5036571;28;22246;-55
2022/03/03 11:01:20;;;;;;;38.67;21.15;;;;;;;11.65;39.54;99532.09;5030853;28;20037;-55
2022/03/03 11:03:52;;;;;;;36.75;21.60;;;;;;;11.86;39.18;99527.94;5034440;28;20052;-53
2022/03/03 11:06:18;;;;;;;45.38;20.80;;;;;;;11.08;41.12;99526.75;5044700;28;20044;-55
2022/03/03 11:08:44;;;;;;;40.63;21.25;;;;;;;11.41;40.03;99526.06;5039663;28;20041;-54
2022/03/03 11:11:12;;;;;;;39.58;21.50;;;;;;;11.04;40.59;99520.25;5030634;28;20396;-56
2022/03/03 11:13:38;;;;;;;38.00;21.33;;;;;;;10.85;41.19;99514.22;5030451;28;20120;-53
2022/03/03 11:16:04;;;;;;;34.97;21.17;;;;;;;11.58;40.33;99509.97;5030332;28;20624;-55